Stuart Place, Texas
Current Conditions -  °F | °C
As of 2:52 AM on Monday 20 Oct 2014 (Local Time) from KHRL Reporting Station
Clear Clear  
Wind Chill: 73°   Ceiling: Unl
Heat Index: 73°   Visibility: 10mi
Dew Point: 69°   Wind: 3mph
Humidity: 87%   Direction: 350°N
Pressure: 29.93"   Gusts: NA
Location:  26.2089°N, 97.6849°W
Report Text: KHRL 200752Z 35003KT 10SM CLR 23/21 A2993 RMK AO2 SLP133 T02280206
Loading
Personal Weather Stations






























Interactive Weather Map
Tropical Storm Tracking
New forecast layout! Learn more

10-Day Weather Forecast

Advertisements
Track Severe Weather on mobile